Argillite, Kentucky
Current Conditions -  °F | °C
As of 5:15 PM on Sunday 23 Nov 2014 (Local Time) from KDWU Reporting Station
Overcast Overcast  
Wind Chill: 55°   Ceiling: 8000
Heat Index: 55°   Visibility: 10mi
Dew Point: 46°   Wind: 9mph
Humidity: 72%   Direction: 130°SE
Pressure: 29.65"   Gusts: NA
Location:  38.51°N, 82.87°W
Report Text: KDWU 232215Z AUTO 13008KT 10SM FEW060 OVC080 13/08 A2965 RMK AO1
Loading
Personal Weather Stations






























Interactive Weather Map New forecast layout! Learn more

10-Day Weather Forecast

Advertisements
Track Severe Weather on mobile